createdAt,value
2023-05-09T00:02:08.084Z,64.37
2023-05-09T00:04:35.557Z,64.35
2023-05-09T00:07:02.778Z,64.40
2023-05-09T00:09:29.471Z,64.52
2023-05-09T00:11:56.112Z,64.56
2023-05-09T00:14:24.919Z,64.76
2023-05-09T00:16:51.679Z,64.71
2023-05-09T00:19:18.455Z,64.75
2023-05-09T00:21:46.423Z,64.70
2023-05-09T00:24:13.062Z,64.83
2023-05-09T00:26:39.664Z,64.87
2023-05-09T00:29:06.401Z,64.90
2023-05-09T00:31:33.144Z,64.80
2023-05-09T00:33:59.750Z,64.94
2023-05-09T00:36:26.386Z,64.95
2023-05-09T00:38:53.074Z,65.23
2023-05-09T00:41:19.685Z,65.41
2023-05-09T00:43:46.623Z,65.39
2023-05-09T00:46:13.309Z,65.34
2023-05-09T00:48:40.178Z,65.56
2023-05-09T00:51:07.562Z,65.62
2023-05-09T00:53:34.194Z,65.42
2023-05-09T00:56:01.297Z,65.54
2023-05-09T00:58:28.276Z,65.59
2023-05-09T01:00:54.889Z,65.60
2023-05-09T01:03:21.846Z,65.53
2023-05-09T01:06:17.891Z,65.42
2023-05-09T01:08:52.730Z,65.31
2023-05-09T01:11:36.315Z,65.43
2023-05-09T01:14:06.867Z,64.86
2023-05-09T01:16:57.773Z,64.59
2023-05-09T01:19:54.170Z,64.31
2023-05-09T01:22:35.965Z,63.99
2023-05-09T01:25:13.173Z,63.79
2023-05-09T01:27:54.125Z,63.55
2023-05-09T01:30:21.232Z,63.31
2023-05-09T01:32:51.510Z,63.28
2023-05-09T01:35:21.564Z,63.44
2023-05-09T01:37:51.127Z,63.59
2023-05-09T01:40:21.458Z,63.40
2023-05-09T01:42:58.448Z,63.22
2023-05-09T01:45:27.069Z,63.15
2023-05-09T01:47:54.572Z,63.05
2023-05-09T01:50:23.110Z,62.99
2023-05-09T01:52:53.729Z,62.97
2023-05-09T01:55:25.808Z,63.05
2023-05-09T01:57:54.137Z,63.03
2023-05-09T02:00:22.140Z,63.19
2023-05-09T02:02:50.261Z,63.56
2023-05-09T02:05:18.404Z,63.63
2023-05-09T02:07:47.548Z,63.54
2023-05-09T02:10:16.021Z,63.67
2023-05-09T02:12:42.662Z,63.54
2023-05-09T02:15:09.920Z,63.61
2023-05-09T02:17:40.112Z,63.29
2023-05-09T02:20:09.943Z,62.99
2023-05-09T02:22:36.983Z,62.72
2023-05-09T02:25:05.055Z,62.34
2023-05-09T02:27:34.932Z,62.18
2023-05-09T02:30:07.437Z,61.61
2023-05-09T02:32:35.863Z,61.57
2023-05-09T02:35:04.242Z,61.41
2023-05-09T02:37:31.124Z,61.21
2023-05-09T02:39:58.580Z,60.98
2023-05-09T02:42:26.871Z,60.97
2023-05-09T02:44:54.839Z,60.85
2023-05-09T02:47:22.347Z,60.71
2023-05-09T02:49:49.003Z,60.75
2023-05-09T02:52:16.113Z,60.88
2023-05-09T02:54:42.968Z,60.87
2023-05-09T02:57:09.746Z,60.92
2023-05-09T02:59:36.576Z,61.04
2023-05-09T03:02:03.255Z,60.82
2023-05-09T03:04:30.615Z,60.88
2023-05-09T03:06:57.493Z,60.76
2023-05-09T03:09:26.423Z,60.60
2023-05-09T03:11:53.057Z,60.35
2023-05-09T03:14:20.353Z,60.46
2023-05-09T03:16:47.034Z,60.31
2023-05-09T03:19:20.783Z,60.24
2023-05-09T03:21:47.517Z,60.16
2023-05-09T03:24:14.537Z,60.41
2023-05-09T03:26:41.306Z,60.12
2023-05-09T03:29:07.955Z,60.08
2023-05-09T03:31:35.053Z,59.98
2023-05-09T03:34:02.066Z,60.05
2023-05-09T03:36:28.863Z,59.93
2023-05-09T03:38:55.668Z,59.90
2023-05-09T03:41:22.855Z,59.73
2023-05-09T03:43:50.094Z,59.63
2023-05-09T03:46:16.848Z,59.52
2023-05-09T03:48:45.105Z,59.35
2023-05-09T03:51:12.192Z,59.46
2023-05-09T03:53:39.638Z,59.58
2023-05-09T03:56:07.773Z,59.30
2023-05-09T03:58:38.553Z,59.36
2023-05-09T04:01:06.036Z,59.22
2023-05-09T04:03:33.074Z,59.09
2023-05-09T04:06:00.324Z,58.99
2023-05-09T04:08:33.642Z,59.15
2023-05-09T04:11:00.738Z,59.35
2023-05-09T04:13:28.342Z,59.43
2023-05-09T04:15:55.506Z,59.57
2023-05-09T04:18:22.760Z,59.80
2023-05-09T04:20:49.388Z,59.80
2023-05-09T04:23:16.173Z,59.81
2023-05-09T04:25:43.881Z,59.76
2023-05-09T04:28:10.858Z,60.01
2023-05-09T04:30:37.910Z,59.81
2023-05-09T04:33:04.609Z,59.87
2023-05-09T04:35:32.373Z,59.79
2023-05-09T04:37:59.057Z,59.82
2023-05-09T04:40:27.097Z,59.96
2023-05-09T04:42:59.814Z,60.01
2023-05-09T04:45:28.897Z,59.85
2023-05-09T04:47:56.959Z,59.80
2023-05-09T04:50:23.732Z,60.06
2023-05-09T04:52:50.554Z,59.96
2023-05-09T04:55:17.654Z,59.96
2023-05-09T04:57:46.508Z,59.96
2023-05-09T05:00:13.775Z,59.72
2023-05-09T05:02:40.940Z,59.73
2023-05-09T05:05:12.143Z,59.79
2023-05-09T05:07:41.403Z,59.38
2023-05-09T05:10:09.111Z,58.61
2023-05-09T05:12:37.118Z,58.51
2023-05-09T05:15:07.135Z,58.13
2023-05-09T05:17:34.172Z,57.71
2023-05-09T05:20:01.368Z,57.24
2023-05-09T05:22:31.582Z,57.18
2023-05-09T05:24:59.432Z,57.15
2023-05-09T05:27:26.385Z,57.12
2023-05-09T05:29:53.621Z,57.26
2023-05-09T05:32:20.799Z,56.99
2023-05-09T05:34:47.854Z,57.01
2023-05-09T05:37:14.554Z,56.95
2023-05-09T05:39:41.673Z,56.89
2023-05-09T05:42:08.841Z,56.81
2023-05-09T05:44:36.079Z,56.91
2023-05-09T05:47:02.930Z,56.51
2023-05-09T05:49:29.591Z,56.96
2023-05-09T05:51:56.529Z,56.57
2023-05-09T05:54:23.163Z,56.43
2023-05-09T05:56:50.037Z,56.58
2023-05-09T05:59:16.827Z,56.72
2023-05-09T06:01:43.588Z,55.89
2023-05-09T06:04:10.625Z,56.04
2023-05-09T06:06:37.645Z,55.81
2023-05-09T06:09:04.422Z,55.32
2023-05-09T06:11:31.082Z,55.48
2023-05-09T06:13:59.061Z,55.52
2023-05-09T06:16:27.955Z,55.33
2023-05-09T06:18:55.954Z,55.18
2023-05-09T06:21:23.596Z,55.40
2023-05-09T06:24:04.331Z,55.42
2023-05-09T06:26:33.050Z,55.58
2023-05-09T06:28:59.814Z,55.16
2023-05-09T06:31:27.038Z,54.83
2023-05-09T06:33:53.924Z,54.89
2023-05-09T06:36:20.655Z,54.32
2023-05-09T06:38:47.399Z,54.73
2023-05-09T06:41:14.072Z,55.00
2023-05-09T06:43:40.734Z,54.65
2023-05-09T06:46:07.452Z,54.55
2023-05-09T06:48:34.165Z,54.64
2023-05-09T06:51:00.913Z,54.52
2023-05-09T06:53:27.534Z,54.27
2023-05-09T06:55:54.263Z,54.10
2023-05-09T06:58:20.924Z,53.62
2023-05-09T07:00:47.999Z,53.61
2023-05-09T07:03:14.720Z,53.33
2023-05-09T07:05:41.604Z,53.56
2023-05-09T07:08:08.233Z,53.32
2023-05-09T07:10:35.059Z,54.34
2023-05-09T07:13:02.033Z,54.07
2023-05-09T07:15:40.537Z,53.56
2023-05-09T07:18:09.306Z,53.26
2023-05-09T07:20:36.528Z,52.88
2023-05-09T07:23:04.331Z,52.86
2023-05-09T07:25:31.197Z,52.73
2023-05-09T07:27:58.259Z,52.84
2023-05-09T07:30:25.342Z,52.60
2023-05-09T07:32:52.384Z,52.56
2023-05-09T07:35:20.618Z,52.30
2023-05-09T07:37:47.245Z,51.87
2023-05-09T07:40:14.837Z,51.78
2023-05-09T07:42:45.065Z,51.84
2023-05-09T07:45:12.057Z,52.15
2023-05-09T07:47:38.851Z,51.38
2023-05-09T07:50:06.383Z,51.76
2023-05-09T07:52:33.974Z,51.72
2023-05-09T07:55:00.788Z,51.28
2023-05-09T07:57:27.448Z,51.18
2023-05-09T07:59:55.203Z,51.46
2023-05-09T08:02:21.904Z,51.19
2023-05-09T08:04:49.208Z,51.49
2023-05-09T08:07:16.477Z,51.31
2023-05-09T08:09:43.340Z,50.28
2023-05-09T08:12:10.092Z,49.97
2023-05-09T08:14:36.825Z,49.94
2023-05-09T08:17:03.476Z,49.60
2023-05-09T08:19:30.252Z,49.04
2023-05-09T08:21:57.046Z,49.09
2023-05-09T08:24:23.806Z,48.84
2023-05-09T08:26:51.558Z,48.33
2023-05-09T08:29:18.312Z,48.39
2023-05-09T08:31:45.131Z,48.49
2023-05-09T08:34:12.051Z,48.11
2023-05-09T08:36:39.508Z,48.13
2023-05-09T08:39:06.071Z,48.20
2023-05-09T08:41:36.298Z,47.58
2023-05-09T08:44:03.506Z,47.49
2023-05-09T08:46:38.483Z,46.91
2023-05-09T08:49:07.455Z,47.20
2023-05-09T08:51:35.950Z,46.59
2023-05-09T08:54:04.225Z,46.55
2023-05-09T08:56:31.661Z,46.29
2023-05-09T08:58:59.322Z,46.07
2023-05-09T09:01:26.964Z,45.83
2023-05-09T09:03:54.018Z,45.81
2023-05-09T09:06:23.264Z,45.44
2023-05-09T09:08:50.972Z,45.27
2023-05-09T09:11:18.873Z,45.58
2023-05-09T09:13:47.692Z,45.07
2023-05-09T09:16:22.461Z,45.14
2023-05-09T09:18:52.378Z,45.14
2023-05-09T09:21:20.810Z,45.25
2023-05-09T09:23:48.988Z,44.84
2023-05-09T09:26:16.544Z,44.48
2023-05-09T09:28:43.520Z,44.04
2023-05-09T09:31:28.533Z,44.04
2023-05-09T09:34:03.032Z,44.09
2023-05-09T09:36:32.667Z,43.62
2023-05-09T09:39:01.143Z,43.50
2023-05-09T09:41:36.067Z,43.48
2023-05-09T09:44:19.913Z,43.68
2023-05-09T09:46:56.177Z,42.90
2023-05-09T09:49:24.847Z,43.26
2023-05-09T09:51:52.186Z,43.55
2023-05-09T09:54:18.900Z,42.92
2023-05-09T09:56:47.619Z,42.66
2023-05-09T09:59:19.330Z,42.46
2023-05-09T10:01:58.079Z,42.67
2023-05-09T10:04:27.125Z,42.37
2023-05-09T10:06:57.948Z,41.22
2023-05-09T10:09:26.245Z,41.12
2023-05-09T10:11:55.067Z,40.52
2023-05-09T10:14:24.299Z,40.37
2023-05-09T10:16:57.647Z,40.44
2023-05-09T10:19:27.408Z,39.96
2023-05-09T10:21:56.469Z,40.20
2023-05-09T10:24:38.607Z,40.16
2023-05-09T10:27:11.506Z,39.55
2023-05-09T10:29:44.536Z,39.21
2023-05-09T10:32:21.116Z,39.64
2023-05-09T10:34:51.465Z,39.36
2023-05-09T10:37:18.591Z,39.27
2023-05-09T10:39:46.692Z,38.93
2023-05-09T10:42:14.291Z,39.15
2023-05-09T10:44:41.445Z,39.41
2023-05-09T10:47:08.469Z,39.74
2023-05-09T10:49:37.072Z,39.91
2023-05-09T10:52:04.336Z,39.60
2023-05-09T10:54:33.585Z,39.69
2023-05-09T10:57:00.942Z,39.72
2023-05-09T10:59:43.740Z,39.90
2023-05-09T11:02:14.956Z,39.16
2023-05-09T11:04:42.120Z,38.86
2023-05-09T11:07:26.426Z,38.96
2023-05-09T11:10:07.519Z,39.28
2023-05-09T11:12:34.290Z,39.28
2023-05-09T11:15:08.237Z,39.13
2023-05-09T11:17:38.690Z,39.39
2023-05-09T11:20:06.527Z,38.59
2023-05-09T11:22:44.745Z,38.46
2023-05-09T11:25:13.248Z,38.20
2023-05-09T11:27:42.600Z,38.56
2023-05-09T11:30:11.742Z,38.83
2023-05-09T11:32:44.086Z,38.81
2023-05-09T11:35:17.298Z,38.59
2023-05-09T11:37:52.546Z,38.64
2023-05-09T11:40:21.123Z,38.56
2023-05-09T11:42:56.232Z,38.47
2023-05-09T11:45:30.610Z,38.87
2023-05-09T11:47:57.847Z,38.64
2023-05-09T11:50:25.203Z,38.35
2023-05-09T11:52:52.087Z,38.32
2023-05-09T11:55:22.781Z,38.45
2023-05-09T11:57:51.873Z,38.44
2023-05-09T12:00:23.955Z,38.86
2023-05-09T12:02:51.484Z,38.83
2023-05-09T12:05:20.711Z,38.64
2023-05-09T12:07:47.822Z,38.67
2023-05-09T12:10:25.553Z,38.63
2023-05-09T12:12:55.573Z,38.03
2023-05-09T12:15:23.142Z,37.61
2023-05-09T12:18:04.505Z,37.87
2023-05-09T12:20:46.239Z,37.61
2023-05-09T12:23:14.574Z,38.23
2023-05-09T12:25:48.814Z,38.63
2023-05-09T12:28:16.695Z,38.44
2023-05-09T12:30:45.194Z,38.01
2023-05-09T12:33:12.633Z,37.54
2023-05-09T12:35:40.280Z,37.92
2023-05-09T12:38:07.637Z,37.74
2023-05-09T12:40:34.643Z,38.20
2023-05-09T12:43:02.947Z,38.09
2023-05-09T12:45:33.727Z,38.35
2023-05-09T12:48:02.488Z,38.06
2023-05-09T12:50:36.601Z,38.59
2023-05-09T12:53:06.926Z,38.90
2023-05-09T12:55:41.216Z,39.30
2023-05-09T12:58:07.928Z,39.50
2023-05-09T13:00:46.904Z,39.72
2023-05-09T13:03:25.617Z,39.62
2023-05-09T13:06:06.604Z,39.76
2023-05-09T13:08:33.518Z,39.84
2023-05-09T13:11:11.927Z,39.78
2023-05-09T13:13:42.552Z,39.43
2023-05-09T13:16:10.722Z,39.88
2023-05-09T13:18:38.781Z,40.20
2023-05-09T13:21:05.673Z,39.97
2023-05-09T13:23:32.474Z,39.56
2023-05-09T13:25:59.132Z,39.43
2023-05-09T13:28:25.927Z,38.80
2023-05-09T13:30:52.703Z,39.06
2023-05-09T13:33:25.958Z,39.26
2023-05-09T13:35:53.734Z,39.03
2023-05-09T13:38:20.449Z,39.80
2023-05-09T13:40:47.155Z,39.41
2023-05-09T13:43:13.768Z,38.98
2023-05-09T13:45:40.653Z,38.94
2023-05-09T13:48:07.481Z,38.89
2023-05-09T13:50:34.409Z,38.67
2023-05-09T13:53:01.078Z,38.43
2023-05-09T13:55:27.861Z,38.96
2023-05-09T13:57:54.967Z,39.29
2023-05-09T14:00:22.324Z,39.05
2023-05-09T14:02:48.993Z,39.03
2023-05-09T14:05:17.051Z,39.17
2023-05-09T14:07:45.203Z,38.83
2023-05-09T14:10:12.813Z,38.75
2023-05-09T14:12:40.689Z,38.34
2023-05-09T14:15:08.394Z,38.50
2023-05-09T14:17:35.671Z,38.62
2023-05-09T14:20:02.343Z,39.04
2023-05-09T14:22:28.966Z,39.17
2023-05-09T14:24:57.416Z,39.19
2023-05-09T14:27:25.121Z,39.55
2023-05-09T14:29:52.162Z,39.88
2023-05-09T14:32:18.806Z,40.18
2023-05-09T14:34:45.906Z,40.18
2023-05-09T14:37:15.553Z,40.30
2023-05-09T14:39:43.448Z,40.34
2023-05-09T14:42:11.723Z,40.46
2023-05-09T14:44:38.819Z,40.52
2023-05-09T14:47:06.116Z,40.46
2023-05-09T14:49:33.568Z,40.58
2023-05-09T14:52:00.406Z,40.78
2023-05-09T14:54:27.191Z,41.08
2023-05-09T14:56:53.892Z,41.21
2023-05-09T14:59:20.656Z,41.21
2023-05-09T15:01:47.606Z,41.45
2023-05-09T15:04:14.354Z,41.58
2023-05-09T15:06:41.146Z,41.79
2023-05-09T15:09:08.502Z,41.48
2023-05-09T15:11:46.676Z,41.48
2023-05-09T15:14:15.025Z,41.92
2023-05-09T15:16:41.987Z,42.23
2023-05-09T15:19:09.080Z,42.08
2023-05-09T15:21:36.120Z,42.49
2023-05-09T15:24:03.728Z,42.69
2023-05-09T15:26:30.628Z,42.86
2023-05-09T15:28:57.233Z,42.64
2023-05-09T15:31:25.626Z,42.63
2023-05-09T15:33:52.445Z,42.67
2023-05-09T15:36:19.054Z,42.95
2023-05-09T15:38:49.371Z,42.78
2023-05-09T15:41:17.122Z,42.77
2023-05-09T15:43:44.003Z,42.76
2023-05-09T15:46:10.771Z,42.93
2023-05-09T15:48:37.601Z,43.05
2023-05-09T15:51:04.531Z,43.07
2023-05-09T15:53:31.258Z,43.24
2023-05-09T15:55:58.163Z,43.35
2023-05-09T15:58:25.104Z,43.43
2023-05-09T16:00:52.132Z,43.63
2023-05-09T16:03:19.438Z,43.98
2023-05-09T16:05:46.312Z,44.02
2023-05-09T16:08:13.077Z,43.85
2023-05-09T16:10:40.585Z,44.12
2023-05-09T16:13:08.065Z,44.16
2023-05-09T16:15:35.396Z,44.11
2023-05-09T16:18:02.254Z,43.91
2023-05-09T16:20:29.143Z,44.19
2023-05-09T16:22:55.963Z,44.02
2023-05-09T16:25:22.817Z,44.47
2023-05-09T16:27:49.553Z,44.49
2023-05-09T16:30:16.655Z,45.10
2023-05-09T16:32:43.748Z,44.92
2023-05-09T16:35:10.567Z,45.05
2023-05-09T16:37:37.617Z,45.32
2023-05-09T16:40:04.899Z,45.27
2023-05-09T16:42:32.018Z,45.63
2023-05-09T16:44:58.765Z,45.82
2023-05-09T16:47:25.631Z,45.99
2023-05-09T16:49:52.267Z,46.05
2023-05-09T16:52:18.886Z,46.61
2023-05-09T16:54:45.536Z,46.58
2023-05-09T16:57:13.242Z,46.53
2023-05-09T16:59:40.331Z,46.37
2023-05-09T17:02:07.243Z,45.92
2023-05-09T17:04:36.743Z,45.90
2023-05-09T17:07:04.311Z,46.12
2023-05-09T17:09:32.319Z,46.37
2023-05-09T17:12:00.611Z,46.51
2023-05-09T17:14:27.204Z,46.32
2023-05-09T17:16:54.063Z,46.44
2023-05-09T17:19:23.497Z,46.52
2023-05-09T17:21:50.401Z,46.53
2023-05-09T17:24:17.470Z,46.63
2023-05-09T17:26:44.171Z,46.89
2023-05-09T17:29:10.840Z,47.07
2023-05-09T17:31:37.541Z,47.35
2023-05-09T17:34:05.674Z,47.62
2023-05-09T17:36:33.856Z,47.50
2023-05-09T17:39:01.004Z,47.53
2023-05-09T17:41:27.877Z,47.66
2023-05-09T17:43:57.456Z,47.84
2023-05-09T17:46:24.836Z,47.88
2023-05-09T17:48:51.913Z,48.26
2023-05-09T17:51:18.734Z,48.40
2023-05-09T17:53:45.547Z,48.35
2023-05-09T17:56:12.244Z,48.46
2023-05-09T17:58:38.848Z,48.80
2023-05-09T18:01:05.903Z,48.67
2023-05-09T18:03:33.053Z,48.72
2023-05-09T18:06:02.836Z,48.62
2023-05-09T18:08:30.010Z,48.75
2023-05-09T18:10:57.371Z,48.87
2023-05-09T18:13:24.327Z,48.95
2023-05-09T18:15:51.268Z,48.81
2023-05-09T18:18:18.065Z,48.87
2023-05-09T18:20:47.132Z,49.12
2023-05-09T18:23:15.145Z,49.14
2023-05-09T18:25:42.071Z,49.24
2023-05-09T18:28:09.426Z,49.37
2023-05-09T18:30:36.354Z,49.51
2023-05-09T18:33:03.174Z,49.48
2023-05-09T18:35:30.026Z,49.61
2023-05-09T18:37:56.701Z,49.66
2023-05-09T18:40:23.406Z,49.76
2023-05-09T18:42:50.099Z,49.75
2023-05-09T18:45:16.854Z,49.84
2023-05-09T18:47:43.485Z,49.82
2023-05-09T18:50:10.892Z,49.74
2023-05-09T18:52:37.597Z,50.26
2023-05-09T18:55:05.986Z,49.95
2023-05-09T18:57:33.924Z,49.70
2023-05-09T19:00:00.666Z,49.66
2023-05-09T19:02:27.441Z,49.77
2023-05-09T19:04:54.151Z,49.50
2023-05-09T19:07:20.849Z,49.53
2023-05-09T19:09:47.808Z,49.57
2023-05-09T19:12:16.391Z,49.53
2023-05-09T19:14:43.367Z,49.38
2023-05-09T19:17:10.943Z,49.20
2023-05-09T19:19:37.746Z,49.27
2023-05-09T19:22:04.907Z,49.21
2023-05-09T19:24:32.830Z,49.39
2023-05-09T19:26:59.516Z,49.01
2023-05-09T19:29:26.329Z,48.93
2023-05-09T19:31:52.963Z,48.80
2023-05-09T19:34:19.540Z,48.92
2023-05-09T19:36:46.297Z,48.87
2023-05-09T19:39:13.005Z,48.99
2023-05-09T19:41:39.912Z,49.54
2023-05-09T19:44:09.438Z,49.49
2023-05-09T19:46:38.283Z,50.46
2023-05-09T19:49:06.195Z,51.32
2023-05-09T19:51:32.861Z,51.09
2023-05-09T19:53:59.566Z,50.92
2023-05-09T19:56:26.199Z,51.63
2023-05-09T19:58:53.292Z,51.87
2023-05-09T20:01:20.364Z,52.06
2023-05-09T20:03:47.358Z,52.15
2023-05-09T20:06:14.074Z,51.71
2023-05-09T20:08:40.852Z,51.35
2023-05-09T20:11:07.844Z,51.93
2023-05-09T20:13:34.433Z,51.74
2023-05-09T20:16:02.759Z,51.88
2023-05-09T20:18:33.202Z,51.73
2023-05-09T20:21:01.219Z,51.93
2023-05-09T20:23:28.625Z,52.09
2023-05-09T20:25:56.105Z,52.16
2023-05-09T20:28:23.028Z,51.92
2023-05-09T20:30:50.156Z,51.93
2023-05-09T20:33:16.762Z,51.93
2023-05-09T20:35:43.970Z,51.93
2023-05-09T20:38:11.588Z,52.16
2023-05-09T20:40:38.600Z,52.06
2023-05-09T20:43:05.481Z,51.96
2023-05-09T20:45:32.347Z,52.03
2023-05-09T20:47:59.340Z,52.19
2023-05-09T20:50:26.070Z,53.00
2023-05-09T20:52:52.661Z,53.47
2023-05-09T20:55:19.470Z,53.68
2023-05-09T20:57:46.014Z,53.69
2023-05-09T21:00:13.307Z,54.07
2023-05-09T21:02:40.201Z,54.70
2023-05-09T21:05:07.356Z,55.11
2023-05-09T21:07:33.932Z,55.95
2023-05-09T21:10:00.525Z,56.61
2023-05-09T21:12:27.826Z,57.11
2023-05-09T21:14:54.377Z,57.29
2023-05-09T21:17:20.966Z,57.20
2023-05-09T21:19:51.464Z,57.83
2023-05-09T21:22:18.323Z,58.15
2023-05-09T21:24:44.862Z,58.16
2023-05-09T21:27:11.476Z,58.59
2023-05-09T21:29:38.054Z,58.45
2023-05-09T21:32:04.767Z,58.68
2023-05-09T21:34:31.408Z,58.39
2023-05-09T21:36:57.997Z,58.01
2023-05-09T21:39:24.748Z,58.29
2023-05-09T21:41:51.278Z,58.43
2023-05-09T21:44:17.890Z,58.71
2023-05-09T21:46:46.270Z,58.48
2023-05-09T21:49:16.612Z,58.84
2023-05-09T21:51:43.270Z,58.62
2023-05-09T21:54:10.790Z,58.46
2023-05-09T21:56:37.723Z,58.27
2023-05-09T21:59:04.699Z,58.08
2023-05-09T22:01:31.570Z,58.06
2023-05-09T22:03:58.767Z,58.32
2023-05-09T22:06:25.949Z,58.52
2023-05-09T22:08:52.660Z,57.80
2023-05-09T22:11:19.507Z,58.29
2023-05-09T22:13:46.017Z,58.25
2023-05-09T22:16:13.231Z,57.64
2023-05-09T22:18:39.840Z,57.63
2023-05-09T22:21:06.404Z,57.60
2023-05-09T22:23:33.029Z,57.45
2023-05-09T22:25:59.589Z,57.76
2023-05-09T22:28:28.382Z,57.22
2023-05-09T22:30:55.014Z,57.23
2023-05-09T22:33:21.930Z,56.85
2023-05-09T22:35:48.478Z,56.32
2023-05-09T22:38:15.156Z,56.16
2023-05-09T22:40:41.744Z,55.79
2023-05-09T22:43:10.556Z,55.90
2023-05-09T22:45:37.306Z,55.77
2023-05-09T22:48:04.241Z,55.51
2023-05-09T22:50:31.081Z,55.32
2023-05-09T22:52:57.735Z,55.23
2023-05-09T22:55:24.430Z,55.36
2023-05-09T22:57:51.098Z,55.44
2023-05-09T23:00:18.317Z,55.40
2023-05-09T23:02:45.698Z,54.76
2023-05-09T23:05:12.571Z,55.06
2023-05-09T23:07:39.265Z,55.36
2023-05-09T23:10:07.692Z,54.71
2023-05-09T23:12:34.364Z,54.62
2023-05-09T23:15:01.110Z,54.75
2023-05-09T23:17:27.842Z,54.88
2023-05-09T23:19:54.529Z,54.91
2023-05-09T23:22:21.285Z,54.93
2023-05-09T23:24:48.392Z,54.86
2023-05-09T23:27:15.156Z,55.08
2023-05-09T23:29:41.829Z,55.46
2023-05-09T23:32:08.481Z,55.39
2023-05-09T23:34:36.701Z,55.67
2023-05-09T23:37:04.318Z,55.86
2023-05-09T23:39:31.639Z,55.61
2023-05-09T23:41:58.601Z,55.67
2023-05-09T23:44:25.792Z,55.91
2023-05-09T23:46:52.623Z,56.04
2023-05-09T23:49:19.478Z,56.05
2023-05-09T23:51:46.060Z,56.26
2023-05-09T23:54:12.750Z,56.51
2023-05-09T23:56:39.959Z,56.52
2023-05-09T23:59:06.678Z,56.50
